createdAt,value
2019-05-02T00:00:11.274Z,87.1
2019-05-02T00:05:27.440Z,87
2019-05-02T00:10:11.918Z,87.3
2019-05-02T00:15:11.407Z,87.6
2019-05-02T00:20:12.611Z,87.8
2019-05-02T00:25:16.087Z,88.2
2019-05-02T00:30:11.753Z,89
2019-05-02T00:35:13.856Z,90.8
2019-05-02T00:40:11.389Z,90.8
2019-05-02T00:45:14.181Z,91.2
2019-05-02T00:50:11.458Z,91
2019-05-02T00:55:10.920Z,91
2019-05-02T01:00:13.341Z,91.4
2019-05-02T01:05:11.454Z,91.7
2019-05-02T01:10:12.259Z,92.2
2019-05-02T01:15:14.627Z,93
2019-05-02T01:20:22.125Z,92.8
2019-05-02T01:25:15.336Z,92.5
2019-05-02T01:30:11.782Z,92.2
2019-05-02T01:35:14.930Z,92.1
2019-05-02T01:40:13.095Z,92
2019-05-02T01:45:12.600Z,92.5
2019-05-02T01:50:16.314Z,92.5
2019-05-02T01:55:11.183Z,92.5
2019-05-02T02:00:15.194Z,92.8
2019-05-02T02:05:14.123Z,93.2
2019-05-02T02:10:14.961Z,93.2
2019-05-02T02:15:10.679Z,93.2
2019-05-02T02:20:15.655Z,93.3
2019-05-02T02:25:12.955Z,93.5
2019-05-02T02:30:17.784Z,93.4
2019-05-02T02:35:12.693Z,93.5
2019-05-02T02:40:11.017Z,93.7
2019-05-02T02:45:18.534Z,94.2
2019-05-02T02:50:10.689Z,94.3
2019-05-02T02:55:16.190Z,94.5
2019-05-02T03:00:11.376Z,94.4
2019-05-02T03:10:10.927Z,94.7
2019-05-02T03:15:11.443Z,95.4
2019-05-02T03:20:11.357Z,96.5
2019-05-02T03:25:18.353Z,97.9
2019-05-02T03:30:29.380Z,99.5
2019-05-02T03:35:17.509Z,100
2019-05-02T03:40:10.536Z,100
2019-05-02T03:45:10.685Z,100
2019-05-02T03:50:11.017Z,100
2019-05-02T03:55:10.745Z,100
2019-05-02T04:00:13.575Z,100
2019-05-02T04:05:10.849Z,99.8
2019-05-02T04:10:13.418Z,99.2
2019-05-02T04:15:10.683Z,98.7
2019-05-02T04:20:12.784Z,98.7
2019-05-02T04:25:11.383Z,100
2019-05-02T04:30:13.844Z,100
2019-05-02T04:35:10.338Z,100
2019-05-02T04:40:12.291Z,100
2019-05-02T04:45:24.398Z,100
2019-05-02T04:50:18.311Z,100
2019-05-02T04:55:19.764Z,100
2019-05-02T05:00:11.599Z,100
2019-05-02T05:05:10.438Z,100
2019-05-02T05:10:10.724Z,100
2019-05-02T05:15:15.182Z,100
2019-05-02T05:20:14.118Z,100
2019-05-02T05:25:16.602Z,100
2019-05-02T05:30:15.549Z,100
2019-05-02T05:35:12.896Z,100
2019-05-02T05:40:10.686Z,100
2019-05-02T05:45:13.792Z,100
2019-05-02T05:50:10.627Z,100
2019-05-02T05:55:12.807Z,100
2019-05-02T06:00:16.025Z,100
2019-05-02T06:05:10.158Z,100
2019-05-02T06:10:10.884Z,100
2019-05-02T06:15:11.022Z,100
2019-05-02T06:20:10.762Z,100
2019-05-02T06:25:10.601Z,100
2019-05-02T06:30:10.736Z,100
2019-05-02T06:35:10.627Z,100
2019-05-02T06:40:10.772Z,100
2019-05-02T06:45:10.739Z,100
2019-05-02T06:50:13.857Z,100
2019-05-02T06:55:10.680Z,100
2019-05-02T07:00:10.837Z,100
2019-05-02T07:05:10.485Z,100
2019-05-02T07:10:10.691Z,100
2019-05-02T07:15:10.604Z,98.5
2019-05-02T07:20:10.749Z,97.1
2019-05-02T07:25:10.265Z,95.3
2019-05-02T07:30:10.378Z,95.9
2019-05-02T07:35:10.806Z,92.8
2019-05-02T07:40:12.122Z,92.7
2019-05-02T07:45:10.877Z,92
2019-05-02T07:50:11.945Z,91.3
2019-05-02T07:55:10.363Z,88.1
2019-05-02T08:00:10.661Z,88
2019-05-02T08:05:15.845Z,85.7
2019-05-02T08:10:10.897Z,87.2
2019-05-02T08:15:15.274Z,86.4
2019-05-02T08:20:13.571Z,85.1
2019-05-02T08:25:13.244Z,84
2019-05-02T08:30:13.838Z,84.6
2019-05-02T08:35:28.289Z,84.9
2019-05-02T08:40:12.084Z,83.9
2019-05-02T08:45:51.362Z,84.8
2019-05-02T08:50:10.881Z,82.5
2019-05-02T08:55:46.723Z,84.4
2019-05-02T09:00:39.493Z,84.6
2019-05-02T09:05:46.032Z,84.4
2019-05-02T09:10:10.358Z,85.6
2019-05-02T09:15:51.122Z,84.8
2019-05-02T09:20:18.794Z,85.8
2019-05-02T09:25:21.937Z,87.2
2019-05-02T09:30:17.010Z,89.1
2019-05-02T09:35:56.444Z,91.3
2019-05-02T09:40:15.076Z,91.7
2019-05-02T09:45:12.168Z,92.7
2019-05-02T09:50:12.704Z,94.3
2019-05-02T09:55:12.366Z,95.3
2019-05-02T10:00:12.783Z,95.4
2019-05-02T10:05:12.540Z,96.4
2019-05-02T10:10:12.844Z,95.8
2019-05-02T10:15:12.953Z,97
2019-05-02T10:20:12.525Z,97.2
2019-05-02T10:25:11.822Z,97
2019-05-02T10:30:15.482Z,98.7
2019-05-02T10:35:10.307Z,99.3
2019-05-02T10:40:13.423Z,99.6
2019-05-02T10:45:13.096Z,99.3
2019-05-02T10:50:11.658Z,100
2019-05-02T10:55:10.290Z,100
2019-05-02T11:00:12.042Z,100
2019-05-02T11:05:11.884Z,100
2019-05-02T11:10:12.171Z,100
2019-05-02T11:15:09.976Z,100
2019-05-02T11:20:12.156Z,100
2019-05-02T11:25:12.020Z,100
2019-05-02T11:30:12.118Z,100
2019-05-02T11:35:12.076Z,100
2019-05-02T11:40:12.213Z,100
2019-05-02T11:45:09.693Z,100
2019-05-02T11:50:11.784Z,100
2019-05-02T11:55:09.793Z,100
2019-05-02T12:00:12.225Z,100
2019-05-02T12:05:10.054Z,100
2019-05-02T12:10:12.410Z,100
2019-05-02T12:15:11.792Z,100
2019-05-02T12:20:11.731Z,100
2019-05-02T12:25:09.988Z,100
2019-05-02T12:30:11.660Z,100
2019-05-02T12:35:11.812Z,100
2019-05-02T12:40:12.070Z,100
2019-05-02T12:45:09.913Z,100
2019-05-02T12:50:11.969Z,100
2019-05-02T12:55:10.005Z,100
2019-05-02T13:00:10.392Z,100
2019-05-02T13:05:10.124Z,100
2019-05-02T13:10:11.805Z,100
2019-05-02T13:15:09.662Z,100
2019-05-02T13:20:11.894Z,100
2019-05-02T13:25:10.468Z,100
2019-05-02T13:30:12.213Z,100
2019-05-02T13:35:09.891Z,99.9
2019-05-02T13:40:11.817Z,100
2019-05-02T13:45:09.715Z,100
2019-05-02T13:50:09.917Z,100
2019-05-02T13:55:11.700Z,99.1
2019-05-02T14:00:09.731Z,99.2
2019-05-02T14:05:09.619Z,99.3
2019-05-02T14:10:11.879Z,99.6
2019-05-02T14:15:11.726Z,99.9
2019-05-02T14:20:11.548Z,99.1
2019-05-02T14:25:09.773Z,96.8
2019-05-02T14:30:09.584Z,96
2019-05-02T14:35:11.810Z,94.2
2019-05-02T14:40:11.509Z,93.9
2019-05-02T14:45:24.358Z,95.4
2019-05-02T14:50:22.798Z,94.5
2019-05-02T14:55:09.644Z,94
2019-05-02T15:00:09.707Z,93.1
2019-05-02T15:05:09.841Z,90.6
2019-05-02T15:10:09.573Z,88.3
2019-05-02T15:15:09.642Z,87.7
2019-05-02T15:20:09.484Z,84.9
2019-05-02T15:25:13.789Z,80.2
2019-05-02T15:30:09.495Z,82.5
2019-05-02T15:35:09.443Z,79.5
2019-05-02T15:40:47.041Z,81.4
2019-05-02T15:45:09.471Z,78.3
2019-05-02T15:50:09.496Z,76.2
2019-05-02T15:55:11.497Z,72
2019-05-02T16:00:09.786Z,72
2019-05-02T16:05:09.536Z,72.4
2019-05-02T16:10:09.474Z,74
2019-05-02T16:15:18.203Z,75.1
2019-05-02T16:20:10.684Z,76.1
2019-05-02T16:25:09.703Z,77.6
2019-05-02T16:30:12.758Z,77.6
2019-05-02T16:35:15.292Z,77.5
2019-05-02T16:40:09.540Z,76.7
2019-05-02T16:45:11.657Z,76.9
2019-05-02T16:50:12.039Z,76.4
2019-05-02T16:55:13.669Z,77.4
2019-05-02T17:00:11.297Z,78.9
2019-05-02T17:05:11.961Z,79.3
2019-05-02T17:10:14.634Z,78.8
2019-05-02T17:15:09.378Z,79.6
2019-05-02T17:20:12.902Z,78.1
2019-05-02T17:25:09.389Z,80.2
2019-05-02T17:30:09.419Z,80.6
2019-05-02T17:35:11.336Z,79.8
2019-05-02T17:40:09.478Z,79.5
2019-05-02T17:45:09.191Z,78.7
2019-05-02T17:50:16.342Z,78.9
2019-05-02T17:55:09.517Z,79.4
2019-05-02T18:00:13.063Z,81
2019-05-02T18:05:09.092Z,79.3
2019-05-02T18:10:14.304Z,80.2
2019-05-02T18:15:09.345Z,82.7
2019-05-02T18:20:09.364Z,81.8
2019-05-02T18:25:09.289Z,82.6
2019-05-02T18:30:09.210Z,84.2
2019-05-02T18:35:11.741Z,84.4
2019-05-02T18:40:09.576Z,83.7
2019-05-02T18:45:09.269Z,84.8
2019-05-02T18:50:09.395Z,85.3
2019-05-02T18:55:09.350Z,86.7
2019-05-02T19:00:09.319Z,86.2
2019-05-02T19:05:13.421Z,86
2019-05-02T19:10:09.382Z,87.7
2019-05-02T19:15:09.436Z,87.1
2019-05-02T19:20:11.041Z,87
2019-05-02T19:25:09.182Z,87.5
2019-05-02T19:30:09.402Z,87.8
2019-05-02T19:35:09.222Z,86.5
2019-05-02T19:40:09.188Z,88.8
2019-05-02T19:45:12.607Z,89.7
2019-05-02T19:50:09.109Z,89.9
2019-05-02T19:55:14.164Z,89
2019-05-02T20:00:09.154Z,88.6
2019-05-02T20:05:09.376Z,89.5
2019-05-02T20:10:08.924Z,89.5
2019-05-02T20:15:09.309Z,89.4
2019-05-02T20:20:09.101Z,89.1
2019-05-02T20:25:09.117Z,87.7
2019-05-02T20:30:08.942Z,88.8
2019-05-02T20:35:09.172Z,89.1
2019-05-02T20:40:09.135Z,89.1
2019-05-02T20:45:09.223Z,88.5
2019-05-02T20:50:09.361Z,89.7
2019-05-02T20:55:09.538Z,88.1
2019-05-02T21:00:09.253Z,89.5
2019-05-02T21:05:09.116Z,89.4
2019-05-02T21:10:09.190Z,88.9
2019-05-02T21:15:09.326Z,87.9
2019-05-02T21:20:09.073Z,87.5
2019-05-02T21:25:09.111Z,86.6
2019-05-02T21:30:09.395Z,87.6
2019-05-02T21:35:09.063Z,88
2019-05-02T21:40:08.944Z,87.4
2019-05-02T21:45:09.028Z,87.5
2019-05-02T21:50:09.013Z,88
2019-05-02T21:55:09.099Z,89
2019-05-02T22:00:08.968Z,88.7
2019-05-02T22:05:09.385Z,88.6
2019-05-02T22:10:08.945Z,88.1
2019-05-02T22:15:09.011Z,88.5
2019-05-02T22:20:09.299Z,88.4
2019-05-02T22:25:09.035Z,86.1
2019-05-02T22:30:09.132Z,86.9
2019-05-02T22:35:09.281Z,85.8
2019-05-02T22:40:09.136Z,84.8
2019-05-02T22:45:09.098Z,86.3
2019-05-02T22:50:09.099Z,85.8
2019-05-02T22:55:09.395Z,85.5
2019-05-02T23:00:08.907Z,83.3
2019-05-02T23:05:09.027Z,84.1
2019-05-02T23:10:08.900Z,84.4
2019-05-02T23:15:09.321Z,84.9
2019-05-02T23:20:09.095Z,85.2
2019-05-02T23:25:09.003Z,85.7
2019-05-02T23:30:08.967Z,85.1
2019-05-02T23:35:09.425Z,86.3
2019-05-02T23:40:09.186Z,86.9
2019-05-02T23:45:09.007Z,85.7
2019-05-02T23:50:08.739Z,87.2
2019-05-02T23:55:09.153Z,87.8
